Time;durP1;ratioP1;P1;durP2;ratioP2;P2;SDS_P1;SDS_P2;PMS_P1;PMS_P2;Temp;Humidity;BMP_temperature;BMP_pressure;BME280_temperature;BME280_humidity;BME280_pressure;Samples;Min_cycle;Max_cycle;Signal;HPM_P1;HPM_P2
2022/09/29 00:01:22;;;;;;;9.45;7.97;;;;;;;9.34;77.71;99575.26;1745205;82;21015;-83
2022/09/29 00:03:49;;;;;;;10.18;7.87;;;;;;;9.41;77.71;99574.47;1744718;82;21877;-93
2022/09/29 00:06:17;;;;;;;12.85;7.55;;;;;;;9.43;77.56;99567.48;1725482;82;21247;-83
2022/09/29 00:08:45;;;;;;;14.15;8.48;;;;;;;9.50;77.57;99576.33;1711165;82;21082;-84
2022/09/29 00:11:14;;;;;;;11.28;9.50;;;;;;;9.53;77.46;99567.14;1745284;82;21773;-83
2022/09/29 00:13:42;;;;;;;12.85;9.48;;;;;;;9.57;77.47;99574.17;1745306;82;21070;-83
2022/09/29 00:16:09;;;;;;;14.20;9.80;;;;;;;9.61;77.34;99569.84;1738142;82;21114;-83
2022/09/29 00:18:36;;;;;;;9.63;8.40;;;;;;;9.61;77.20;99573.78;1730575;82;21636;-91
2022/09/29 00:21:18;;;;;;;9.50;8.13;;;;;;;9.60;77.10;99566.34;1715458;82;21044;-92
2022/09/29 00:23:45;;;;;;;11.80;7.37;;;;;;;9.59;77.04;99567.22;1708024;82;22073;-84
2022/09/29 00:26:16;;;;;;;7.47;6.55;;;;;;;9.60;76.98;99569.41;1715184;82;21603;-84
2022/09/29 00:28:51;;;;;;;7.65;6.40;;;;;;;9.60;77.04;99570.28;1731060;82;21023;-92
2022/09/29 00:31:19;;;;;;;9.85;6.72;;;;;;;9.62;76.98;99570.30;1720122;82;21078;-93
2022/09/29 00:33:46;;;;;;;8.13;6.40;;;;;;;9.64;76.94;99568.56;1714282;82;21078;-91
2022/09/29 00:36:14;;;;;;;7.65;6.95;;;;;;;9.64;76.88;99565.94;1722112;82;21664;-91
2022/09/29 00:38:42;;;;;;;9.30;7.33;;;;;;;9.64;76.78;99556.75;1707763;84;21060;-91
2022/09/29 00:41:16;;;;;;;8.75;6.95;;;;;;;9.64;76.71;99563.31;1734057;82;21135;-90
2022/09/29 00:44:00;;;;;;;11.13;8.10;;;;;;;9.60;76.72;99558.45;1714969;82;21368;-92
2022/09/29 00:47:00;;;;;;;9.18;7.30;;;;;;;9.61;76.67;99563.27;1732239;82;21024;-84
2022/09/29 00:53:26;;;;;;;10.05;7.67;;;;;;;9.61;76.69;99568.11;1743863;82;21592;-84
2022/09/29 00:56:04;;;;;;;10.20;7.72;;;;;;;9.66;76.85;99568.14;1736277;82;21032;-91
2022/09/29 00:58:54;;;;;;;10.38;7.03;;;;;;;9.69;76.76;99566.87;1744275;82;21862;-92
2022/09/29 01:01:26;;;;;;;10.65;7.03;;;;;;;9.69;76.76;99569.50;1727710;82;21072;-85
2022/09/29 01:04:46;;;;;;;11.28;6.55;;;;;;;9.71;76.64;99574.34;1704385;82;22655;-92
2022/09/29 01:07:13;;;;;;;7.35;6.58;;;;;;;9.70;76.65;99573.87;1706619;82;21533;-85
2022/09/29 01:14:10;;;;;;;7.08;5.92;;;;;;;9.72;76.58;99579.61;1708646;83;21034;-91
2022/09/29 01:16:40;;;;;;;9.25;6.12;;;;;;;9.70;76.56;99578.72;1715831;82;21074;-84
2022/09/29 01:19:20;;;;;;;10.23;6.33;;;;;;;9.71;76.64;99580.46;1713847;82;21789;-84
2022/09/29 01:22:26;;;;;;;10.10;6.45;;;;;;;9.72;76.66;99577.39;1709050;83;21046;-91
2022/09/29 01:25:36;;;;;;;7.80;6.80;;;;;;;9.73;76.66;99580.48;1711169;83;21058;-91
2022/09/29 01:31:50;;;;;;;7.10;6.40;;;;;;;9.67;76.65;99586.56;1718274;82;21281;-84
2022/09/29 01:34:23;;;;;;;8.78;6.45;;;;;;;9.66;76.81;99583.91;1719892;82;21767;-83
2022/09/29 01:37:22;;;;;;;8.53;6.15;;;;;;;9.65;76.83;99583.48;1717145;82;21072;-91
2022/09/29 01:40:00;;;;;;;7.17;5.65;;;;;;;9.63;76.81;99583.87;1722918;82;21073;-83
2022/09/29 01:42:35;;;;;;;6.33;5.53;;;;;;;9.59;76.88;99592.59;1714323;83;21171;-83
2022/09/29 01:45:17;;;;;;;6.12;5.50;;;;;;;9.60;77.00;99589.98;1728264;82;21074;-83
2022/09/29 01:47:51;;;;;;;6.62;5.47;;;;;;;9.62;76.97;99590.88;1708537;83;22624;-91
2022/09/29 01:51:08;;;;;;;7.17;5.35;;;;;;;9.62;77.04;99596.13;1693149;82;21393;-92
2022/09/29 01:53:40;;;;;;;7.55;5.87;;;;;;;9.64;77.04;99592.22;1673063;85;21091;-83
2022/09/29 01:56:13;;;;;;;5.67;5.08;;;;;;;9.64;77.03;99593.52;1699910;84;21047;-92
2022/09/29 01:59:16;;;;;;;5.78;5.00;;;;;;;9.65;77.09;99592.67;1662656;84;22190;-83
2022/09/29 02:01:46;;;;;;;5.67;5.15;;;;;;;9.64;77.09;99591.77;1617088;87;21849;-91
2022/09/29 02:04:27;;;;;;;6.97;5.40;;;;;;;9.62;77.02;99585.62;1656341;86;21345;-83
2022/09/29 02:07:06;;;;;;;6.00;4.97;;;;;;;9.61;77.08;99582.97;1731945;82;21564;-92
2022/09/29 02:09:39;;;;;;;5.72;5.15;;;;;;;9.61;77.20;99589.55;1728144;82;21135;-93
2022/09/29 02:16:22;;;;;;;6.58;5.60;;;;;;;9.64;77.24;99593.52;1711049;83;21554;-92
2022/09/29 02:18:56;;;;;;;8.08;6.03;;;;;;;9.70;77.40;99595.80;1722507;82;21059;-83
2022/09/29 02:21:23;;;;;;;9.30;5.70;;;;;;;9.74;77.37;99600.62;1737443;82;21115;-83
2022/09/29 02:23:51;;;;;;;6.42;5.70;;;;;;;9.78;77.31;99597.19;1738358;82;21380;-83
2022/09/29 02:26:18;;;;;;;6.45;5.30;;;;;;;9.79;77.17;99592.80;1710289;82;21059;-83
2022/09/29 02:28:45;;;;;;;5.60;5.00;;;;;;;9.81;77.16;99592.38;1734690;82;21750;-83
2022/09/29 02:31:11;;;;;;;6.92;5.85;;;;;;;9.81;77.14;99591.94;1713965;82;21959;-83
2022/09/29 02:33:39;;;;;;;8.58;5.28;;;;;;;9.82;77.17;99594.16;1738320;82;21066;-83
2022/09/29 02:36:27;;;;;;;10.28;6.05;;;;;;;9.82;77.10;99592.84;1732719;82;21056;-83
2022/09/29 02:39:02;;;;;;;8.65;5.87;;;;;;;9.82;77.14;99595.02;1722158;82;21074;-82
2022/09/29 02:41:43;;;;;;;8.50;5.92;;;;;;;9.83;77.07;99598.09;1729597;82;21776;-83
2022/09/29 02:44:39;;;;;;;9.55;6.65;;;;;;;9.81;77.00;99595.00;1724588;82;21071;-83
2022/09/29 02:47:36;;;;;;;8.83;6.97;;;;;;;9.79;77.09;99598.92;1738328;82;21039;-83
2022/09/29 02:50:11;;;;;;;9.63;6.60;;;;;;;9.78;76.95;99601.53;1727795;82;21031;-84
2022/09/29 02:53:13;;;;;;;7.10;5.75;;;;;;;9.77;77.08;99606.36;1732260;82;21051;-84
2022/09/29 02:55:51;;;;;;;7.15;5.35;;;;;;;9.78;77.09;99610.73;1699730;83;21771;-84
2022/09/29 03:02:05;;;;;;;9.78;6.10;;;;;;;9.81;77.04;99606.83;1702322;83;21145;-84
2022/09/29 03:05:13;;;;;;;8.30;5.58;;;;;;;9.81;77.06;99614.27;1624739;87;21249;-93
2022/09/29 03:07:40;;;;;;;8.20;5.25;;;;;;;9.82;77.08;99609.48;1646732;86;21074;-83
2022/09/29 03:13:57;;;;;;;9.85;5.60;;;;;;;9.82;77.03;99614.73;1646561;85;21095;-83
2022/09/29 03:16:38;;;;;;;12.13;6.35;;;;;;;9.82;77.04;99619.99;1651290;85;21083;-91
2022/09/29 03:19:06;;;;;;;7.47;5.60;;;;;;;9.80;77.05;99617.79;1651633;85;21113;-84
2022/09/29 03:21:34;;;;;;;10.00;5.72;;;;;;;9.80;77.07;99615.16;1654008;85;21103;-83
2022/09/29 03:24:21;;;;;;;13.55;5.87;;;;;;;9.79;76.98;99618.64;1671915;84;22649;-90
2022/09/29 03:26:48;;;;;;;7.42;5.65;;;;;;;9.77;76.99;99622.13;1672544;84;21056;-83
2022/09/29 03:29:15;;;;;;;9.25;5.58;;;;;;;9.74;76.93;99616.39;1672281;84;21076;-83
2022/09/29 03:31:41;;;;;;;7.22;5.40;;;;;;;9.71;76.92;99617.25;1659889;85;21110;-83
2022/09/29 03:34:08;;;;;;;6.55;5.62;;;;;;;9.69;76.97;99623.37;1656512;85;21086;-83
2022/09/29 03:36:35;;;;;;;6.85;5.33;;;;;;;9.68;77.00;99620.27;1670081;85;21762;-91
2022/09/29 03:39:02;;;;;;;6.35;5.10;;;;;;;9.68;77.05;99618.96;1657387;86;21090;-84
2022/09/29 03:41:30;;;;;;;5.20;4.75;;;;;;;9.67;77.06;99623.34;1646972;85;22146;-83
2022/09/29 03:43:57;;;;;;;7.70;5.17;;;;;;;9.68;77.07;99623.77;1650976;85;21040;-86
2022/09/29 03:46:24;;;;;;;7.12;4.37;;;;;;;9.68;77.06;99621.14;1661760;85;21114;-83
2022/09/29 03:48:51;;;;;;;7.28;4.92;;;;;;;9.69;77.01;99624.68;1646073;85;21802;-83
2022/09/29 03:51:18;;;;;;;7.65;4.47;;;;;;;9.69;77.06;99629.94;1665667;84;21103;-83
2022/09/29 03:53:45;;;;;;;6.25;4.35;;;;;;;9.71;77.11;99630.83;1662180;84;21086;-91
2022/09/29 03:56:15;;;;;;;4.60;3.95;;;;;;;9.74;77.05;99634.78;1646026;85;21107;-91
2022/09/29 03:58:42;;;;;;;4.67;4.00;;;;;;;9.76;77.02;99633.48;1645011;86;21096;-83
2022/09/29 04:01:08;;;;;;;6.65;4.03;;;;;;;9.78;77.07;99631.34;1652486;85;21766;-91
2022/09/29 04:03:36;;;;;;;5.67;4.65;;;;;;;9.82;77.04;99627.87;1666589;85;21083;-84
2022/09/29 04:06:08;;;;;;;6.22;4.70;;;;;;;9.86;77.05;99627.48;1643756;85;21107;-91
2022/09/29 04:08:39;;;;;;;5.75;4.20;;;;;;;9.88;76.93;99630.56;1648674;85;21065;-91
2022/09/29 04:11:06;;;;;;;5.90;4.83;;;;;;;9.90;76.90;99634.52;1644480;86;21081;-91
2022/09/29 04:13:34;;;;;;;5.15;4.33;;;;;;;9.91;76.88;99640.24;1638180;85;22736;-82
2022/09/29 04:16:03;;;;;;;6.22;3.70;;;;;;;9.89;76.74;99636.28;1648006;85;21183;-90
2022/09/29 04:18:30;;;;;;;5.05;3.92;;;;;;;9.87;76.75;99634.48;1660162;85;21126;-84
2022/09/29 04:20:59;;;;;;;5.03;3.70;;;;;;;9.85;76.74;99638.44;1655499;85;21055;-90
2022/09/29 04:23:29;;;;;;;5.10;4.20;;;;;;;9.89;76.84;99648.52;1605469;87;21151;-84
2022/09/29 04:25:57;;;;;;;4.45;3.80;;;;;;;9.90;76.85;99641.97;1613208;87;21879;-92
2022/09/29 04:28:24;;;;;;;5.08;4.10;;;;;;;9.93;76.83;99647.70;1666407;85;21091;-89
2022/09/29 04:30:51;;;;;;;4.83;4.42;;;;;;;9.94;76.74;99646.83;1652091;85;21068;-82
2022/09/29 04:33:17;;;;;;;5.12;4.40;;;;;;;9.90;76.68;99646.35;1652358;85;21170;-90
2022/09/29 04:35:45;;;;;;;5.67;4.35;;;;;;;9.86;76.67;99649.38;1635654;86;21065;-90
2022/09/29 04:38:12;;;;;;;7.15;4.40;;;;;;;9.82;76.58;99652.84;1659194;85;21803;-87
2022/09/29 04:40:39;;;;;;;4.90;4.40;;;;;;;9.75;76.57;99652.33;1654598;85;21131;-81
2022/09/29 04:43:06;;;;;;;6.37;4.37;;;;;;;9.66;76.49;99657.48;1676233;85;21060;-87
2022/09/29 04:45:33;;;;;;;5.45;4.10;;;;;;;9.54;76.50;99657.80;1663927;85;21115;-88
2022/09/29 04:48:00;;;;;;;5.17;4.67;;;;;;;9.45;76.62;99659.44;1668327;85;21149;-87
2022/09/29 04:50:28;;;;;;;6.92;5.20;;;;;;;9.38;76.72;99662.84;1673951;85;21987;-83
2022/09/29 04:52:54;;;;;;;7.35;4.50;;;;;;;9.33;76.84;99670.68;1670635;85;21544;-80
2022/09/29 04:55:21;;;;;;;6.05;4.72;;;;;;;9.26;76.91;99673.64;1667617;85;21094;-82
2022/09/29 04:57:51;;;;;;;6.08;4.78;;;;;;;9.24;77.10;99673.19;1646098;85;21181;-86
2022/09/29 05:00:18;;;;;;;8.33;4.60;;;;;;;9.22;77.27;99672.28;1674974;85;21084;-82
2022/09/29 05:02:45;;;;;;;6.40;5.12;;;;;;;9.26;77.40;99674.95;1659498;84;22669;-91
2022/09/29 05:05:12;;;;;;;6.55;4.70;;;;;;;9.31;77.46;99676.34;1636510;85;21070;-81
2022/09/29 05:07:40;;;;;;;6.92;4.50;;;;;;;9.36;77.56;99675.08;1647360;86;21518;-81
2022/09/29 05:10:08;;;;;;;5.97;4.45;;;;;;;9.43;77.59;99680.42;1646945;86;21163;-90
2022/09/29 05:12:36;;;;;;;5.72;4.67;;;;;;;9.50;77.60;99679.64;1647314;85;21445;-87
2022/09/29 05:15:05;;;;;;;8.05;4.80;;;;;;;9.55;77.57;99678.37;1617886;88;21784;-92
2022/09/29 05:17:33;;;;;;;4.80;4.10;;;;;;;9.60;77.50;99680.63;1637687;87;21125;-82
2022/09/29 05:20:01;;;;;;;5.20;4.67;;;;;;;9.67;77.66;99688.16;1654628;85;21540;-91
2022/09/29 05:22:28;;;;;;;4.90;4.40;;;;;;;9.78;77.68;99683.91;1650304;85;21107;-82
2022/09/29 05:24:55;;;;;;;5.37;4.17;;;;;;;9.80;77.55;99682.58;1649962;85;21134;-82
2022/09/29 05:27:22;;;;;;;7.33;4.65;;;;;;;9.90;77.49;99690.59;1655428;85;21826;-82
2022/09/29 05:29:49;;;;;;;8.85;4.60;;;;;;;9.95;77.32;99688.44;1645230;85;21150;-82
2022/09/29 05:32:16;;;;;;;6.62;4.55;;;;;;;9.97;77.22;99693.31;1657151;85;21074;-90
2022/09/29 05:34:43;;;;;;;7.65;4.47;;;;;;;9.96;77.17;99687.14;1642996;85;21140;-90
2022/09/29 05:37:09;;;;;;;7.03;5.10;;;;;;;9.97;77.11;99694.63;1668347;85;21101;-83
2022/09/29 05:39:36;;;;;;;7.20;5.90;;;;;;;9.99;77.12;99688.50;1666157;85;22350;-82
2022/09/29 05:42:05;;;;;;;7.85;6.00;;;;;;;10.05;77.09;99694.26;1664905;85;21067;-82
2022/09/29 05:44:32;;;;;;;8.20;6.75;;;;;;;10.11;77.17;99699.13;1632245;86;21112;-82
2022/09/29 05:47:00;;;;;;;7.03;6.05;;;;;;;10.17;77.04;99697.43;1657781;85;21100;-82
2022/09/29 05:49:27;;;;;;;9.38;7.45;;;;;;;10.15;76.89;99697.86;1645472;87;21095;-82
2022/09/29 05:51:54;;;;;;;7.62;6.45;;;;;;;10.04;76.96;99672.77;1656567;85;21759;-82
2022/09/29 05:54:21;;;;;;;9.70;7.42;;;;;;;10.25;77.06;99699.28;1660271;85;21075;-82
2022/09/29 05:56:48;;;;;;;7.85;6.55;;;;;;;10.33;77.14;99697.19;1723081;82;21119;-82
2022/09/29 05:59:15;;;;;;;8.80;6.83;;;;;;;10.41;77.18;99700.31;1726441;82;21063;-82
2022/09/29 06:01:42;;;;;;;10.85;6.50;;;;;;;10.38;77.10;99681.90;1700341;82;21060;-82
2022/09/29 06:04:09;;;;;;;8.35;7.45;;;;;;;10.45;77.00;99684.12;1687067;83;21875;-82
2022/09/29 06:06:38;;;;;;;7.90;7.03;;;;;;;10.62;76.87;99704.91;1692453;83;21079;-82
2022/09/29 06:09:05;;;;;;;8.38;6.55;;;;;;;10.72;76.78;99707.17;1698584;84;21087;-83
2022/09/29 06:11:31;;;;;;;8.40;6.80;;;;;;;10.85;76.73;99713.41;1680850;83;21071;-83
2022/09/29 06:13:59;;;;;;;9.38;6.78;;;;;;;11.01;76.69;99713.06;1705467;83;21039;-82
2022/09/29 06:16:29;;;;;;;7.53;6.62;;;;;;;11.15;76.50;99715.77;1669141;85;22651;-82
2022/09/29 06:18:58;;;;;;;10.88;7.53;;;;;;;11.30;76.37;99718.52;1698338;83;22074;-82
2022/09/29 06:21:26;;;;;;;9.45;6.60;;;;;;;11.47;76.32;99718.61;1670603;84;21086;-91
2022/09/29 06:23:56;;;;;;;12.55;7.25;;;;;;;11.65;76.02;99723.93;1703653;83;21628;-82
2022/09/29 06:26:24;;;;;;;9.53;7.15;;;;;;;11.80;75.80;99724.88;1715184;83;21569;-90
2022/09/29 06:28:52;;;;;;;9.25;6.53;;;;;;;11.94;75.55;99724.53;1700473;82;22570;-83
2022/09/29 06:31:21;;;;;;;9.13;7.53;;;;;;;12.00;75.15;99728.48;1690788;83;21066;-82
2022/09/29 06:33:48;;;;;;;7.45;6.65;;;;;;;12.02;75.08;99729.38;1702166;82;21265;-82
2022/09/29 06:39:11;;;;;;;7.58;6.87;;;;;;;12.03;74.76;99728.52;1699104;82;21074;-82
2022/09/29 06:41:38;;;;;;;8.50;7.45;;;;;;;12.21;74.78;99747.44;1692190;83;22458;-82
2022/09/29 06:44:04;;;;;;;8.88;7.60;;;;;;;12.42;74.96;99743.08;1701248;83;21223;-82
2022/09/29 06:46:31;;;;;;;7.87;7.08;;;;;;;12.69;74.98;99740.02;1687282;83;21579;-93
2022/09/29 06:48:58;;;;;;;7.20;6.55;;;;;;;12.94;74.60;99742.23;1699259;83;21505;-82
2022/09/29 06:51:25;;;;;;;6.62;5.92;;;;;;;13.12;74.27;99746.59;1715709;82;21596;-91
2022/09/29 06:53:52;;;;;;;10.43;6.65;;;;;;;13.29;74.05;99747.45;1715527;83;21942;-91
2022/09/29 06:56:19;;;;;;;7.17;6.47;;;;;;;13.39;73.51;99747.02;1715730;83;21000;-82
2022/09/29 06:58:46;;;;;;;7.65;6.15;;;;;;;13.43;73.34;99746.12;1701483;81;21623;-91
2022/09/29 07:01:14;;;;;;;7.80;6.95;;;;;;;13.50;73.23;99746.55;1720617;82;21274;-82
2022/09/29 07:03:40;;;;;;;7.28;6.20;;;;;;;13.61;73.12;99748.72;1730223;82;21090;-82
2022/09/29 07:06:09;;;;;;;9.08;5.60;;;;;;;13.72;72.83;99747.36;1730679;82;21859;-91
2022/09/29 07:08:37;;;;;;;6.30;5.70;;;;;;;13.79;72.69;99757.04;1723257;82;21125;-82
2022/09/29 07:11:06;;;;;;;10.95;5.87;;;;;;;13.87;72.45;99751.71;1692472;82;21094;-91
2022/09/29 07:13:33;;;;;;;5.62;5.10;;;;;;;13.90;72.09;99759.61;1731616;82;21024;-90
2022/09/29 07:16:10;;;;;;;5.50;4.80;;;;;;;13.91;71.71;99760.52;1736572;82;21326;-82
2022/09/29 07:18:38;;;;;;;6.87;4.85;;;;;;;13.96;71.67;99750.77;1738100;82;21695;-91
2022/09/29 07:21:15;;;;;;;5.45;4.62;;;;;;;14.02;71.50;99760.44;1738093;82;21102;-91
2022/09/29 07:23:37;;;;;;;7.10;5.33;;;;;;;14.03;71.26;99758.25;1729400;82;21095;-91
2022/09/29 07:26:05;;;;;;;6.87;6.17;;;;;;;14.00;71.21;99765.73;1707639;82;21052;-83
2022/09/29 07:28:32;;;;;;;6.60;5.95;;;;;;;13.90;70.83;99770.65;1731996;82;21102;-90
2022/09/29 07:31:02;;;;;;;8.30;6.58;;;;;;;13.67;70.38;99774.27;1731017;82;21761;-91
2022/09/29 07:33:32;;;;;;;6.53;5.85;;;;;;;13.41;70.36;99776.97;1728703;82;21123;-90
2022/09/29 07:35:59;;;;;;;6.85;6.12;;;;;;;13.19;70.33;99787.56;1724941;82;21067;-90
2022/09/29 07:38:28;;;;;;;6.15;5.55;;;;;;;12.98;70.42;99783.15;1685014;83;21062;-82
2022/09/29 07:41:02;;;;;;;6.45;5.85;;;;;;;12.84;70.67;99788.44;1687401;83;21054;-82
2022/09/29 07:43:29;;;;;;;6.78;6.08;;;;;;;12.75;70.93;99781.84;1716343;81;21759;-90
2022/09/29 07:45:56;;;;;;;7.03;6.08;;;;;;;12.69;71.12;99785.80;1716568;82;22359;-92
2022/09/29 07:48:23;;;;;;;7.90;6.15;;;;;;;12.62;71.27;99792.82;1732484;82;21502;-91
2022/09/29 07:50:51;;;;;;;8.75;6.55;;;;;;;12.52;71.33;99791.06;1697749;82;21565;-90
2022/09/29 07:53:18;;;;;;;7.55;6.03;;;;;;;12.48;71.57;99797.22;1711366;82;21069;-82
2022/09/29 07:55:45;;;;;;;6.60;5.92;;;;;;;12.48;71.77;99798.95;1685973;83;22571;-91
2022/09/29 07:58:12;;;;;;;8.25;6.67;;;;;;;12.45;71.77;99798.07;1710255;82;21581;-82
2022/09/29 08:00:38;;;;;;;8.53;5.97;;;;;;;12.44;71.91;99794.11;1737521;82;22056;-91
2022/09/29 08:03:09;;;;;;;6.85;6.15;;;;;;;12.43;71.97;99802.47;1723168;82;21351;-91
2022/09/29 08:05:35;;;;;;;8.43;6.72;;;;;;;12.40;71.87;99801.58;1704033;82;21066;-82
2022/09/29 08:08:03;;;;;;;7.10;6.40;;;;;;;12.37;71.82;99806.84;1703977;82;21933;-82
2022/09/29 08:10:31;;;;;;;10.38;7.10;;;;;;;12.32;71.79;99808.16;1684646;84;21093;-82
2022/09/29 08:12:59;;;;;;;8.10;7.17;;;;;;;12.31;71.91;99809.47;1685111;84;21364;-82
2022/09/29 08:15:26;;;;;;;10.50;7.22;;;;;;;12.31;72.17;99805.52;1705269;83;21086;-90
2022/09/29 08:17:53;;;;;;;8.25;7.40;;;;;;;12.33;72.30;99809.03;1705382;83;21098;-82
2022/09/29 08:20:22;;;;;;;9.10;8.20;;;;;;;12.38;72.30;99809.48;1701453;83;22439;-91
2022/09/29 08:22:49;;;;;;;8.58;7.78;;;;;;;12.40;72.30;99813.45;1703209;82;21090;-94
2022/09/29 08:25:16;;;;;;;9.83;8.20;;;;;;;12.44;72.23;99817.86;1704212;83;21071;-83
2022/09/29 08:27:45;;;;;;;9.70;8.00;;;;;;;12.45;72.14;99813.03;1701352;82;21062;-91
2022/09/29 08:30:12;;;;;;;9.30;8.30;;;;;;;12.47;72.21;99822.28;1704813;84;21063;-91
2022/09/29 08:32:39;;;;;;;8.20;7.40;;;;;;;12.49;72.10;99821.40;1704636;82;21835;-90
2022/09/29 08:35:08;;;;;;;8.35;7.50;;;;;;;12.53;72.08;99821.84;1704029;83;21127;-83
2022/09/29 08:37:35;;;;;;;8.93;7.47;;;;;;;12.59;71.89;99827.57;1703765;82;21082;-82
2022/09/29 08:40:02;;;;;;;11.85;7.47;;;;;;;12.63;72.00;99832.87;1664421;83;21139;-82
2022/09/29 08:42:43;;;;;;;7.67;6.90;;;;;;;12.70;71.92;99835.07;1701294;82;21098;-83
2022/09/29 08:45:14;;;;;;;6.20;5.60;;;;;;;12.72;71.87;99841.23;1704436;82;21759;-91
2022/09/29 08:47:45;;;;;;;6.28;5.67;;;;;;;12.71;71.55;99843.90;1704815;84;21157;-82
2022/09/29 08:50:28;;;;;;;7.62;6.87;;;;;;;12.70;71.33;99842.99;1702470;83;21087;-82
2022/09/29 08:53:02;;;;;;;8.25;6.90;;;;;;;12.68;71.33;99847.39;1705986;83;28860;-83
2022/09/29 08:55:47;;;;;;;6.58;5.90;;;;;;;12.73;71.57;99850.94;1681591;84;21579;-83
2022/09/29 08:58:15;;;;;;;6.58;5.40;;;;;;;12.82;71.79;99851.39;1704783;83;22579;-91
2022/09/29 09:00:59;;;;;;;7.17;6.37;;;;;;;12.89;71.85;99858.42;1641439;86;21071;-82
2022/09/29 09:03:48;;;;;;;7.10;5.60;;;;;;;12.98;71.57;99861.08;1716435;82;21591;-84
2022/09/29 09:06:36;;;;;;;6.20;5.58;;;;;;;13.08;71.42;99863.28;1738709;82;21285;-91
2022/09/29 09:09:46;;;;;;;6.90;6.20;;;;;;;13.25;71.63;99867.28;1720999;82;21075;-82
2022/09/29 09:12:30;;;;;;;6.10;5.50;;;;;;;13.47;71.39;99852.74;1738660;82;21841;-91
2022/09/29 09:15:21;;;;;;;;;;;;;;;13.72;70.87;99867.70;1739635;82;21568;-91
2022/09/29 09:18:13;;;;;;;6.33;5.62;;;;;;;13.84;70.61;99867.23;1716766;82;20218;-82
2022/09/29 09:21:02;;;;;;;6.05;5.45;;;;;;;13.98;70.52;99875.57;1719261;82;21749;-90
2022/09/29 09:23:49;;;;;;;6.53;5.85;;;;;;;14.19;70.39;99877.25;1728229;82;21632;-91
2022/09/29 09:26:18;;;;;;;6.17;5.55;;;;;;;14.51;70.10;99885.50;1737284;82;21741;-91
2022/09/29 09:28:58;;;;;;;7.47;5.87;;;;;;;14.75;69.71;99883.62;1736068;82;21146;-91
2022/09/29 09:31:39;;;;;;;6.03;5.42;;;;;;;14.85;69.02;99883.15;1706191;82;21146;-90
2022/09/29 09:34:28;;;;;;;5.12;4.50;;;;;;;14.77;68.48;99884.07;1694014;82;21055;-82
2022/09/29 09:37:05;;;;;;;5.50;4.58;;;;;;;14.65;68.20;99881.93;1736721;82;21051;-81
2022/09/29 09:39:59;;;;;;;5.10;4.20;;;;;;;14.66;68.28;99881.93;1733290;82;21770;-82
2022/09/29 09:42:30;;;;;;;4.25;3.85;;;;;;;14.66;67.92;99882.35;1702587;83;21123;-90
2022/09/29 09:45:08;;;;;;;5.22;3.50;;;;;;;14.59;67.80;99890.79;1693031;84;21576;-90
2022/09/29 09:47:41;;;;;;;4.42;4.03;;;;;;;14.60;67.83;99890.34;1700272;83;21584;-82
2022/09/29 09:50:19;;;;;;;4.67;4.08;;;;;;;14.67;67.90;99886.77;1706081;83;21246;-82
2022/09/29 09:52:59;;;;;;;6.90;3.52;;;;;;;14.74;67.54;99890.70;1703930;83;21669;-90
2022/09/29 09:55:26;;;;;;;4.58;4.10;;;;;;;14.73;67.27;99891.61;1688403;83;21107;-90
2022/09/29 09:58:17;;;;;;;16.30;5.58;;;;;;;14.73;67.35;99898.23;1689407;83;21336;-82
2022/09/29 10:00:47;;;;;;;4.83;3.90;;;;;;;14.75;67.29;99901.75;1699367;83;21099;-90
2022/09/29 10:03:15;;;;;;;4.80;4.15;;;;;;;14.72;67.16;99900.43;1700730;84;21079;-81
2022/09/29 10:05:46;;;;;;;7.70;5.22;;;;;;;14.66;67.08;99905.77;1686291;84;21819;-82
2022/09/29 10:08:24;;;;;;;7.08;6.37;;;;;;;14.69;67.09;99911.48;1676287;84;21119;-90
2022/09/29 10:10:51;;;;;;;9.45;7.15;;;;;;;14.68;66.78;99909.73;1700274;84;21211;-90
2022/09/29 10:13:18;;;;;;;6.95;6.28;;;;;;;14.63;66.67;99918.14;1697850;83;21830;-82
2022/09/29 10:15:53;;;;;;;6.25;5.22;;;;;;;14.57;66.57;99923.89;1697517;84;21675;-90
2022/09/29 10:18:31;;;;;;;6.03;5.42;;;;;;;14.53;66.61;99928.74;1700372;83;21807;-84
2022/09/29 10:20:57;;;;;;;6.58;5.40;;;;;;;14.52;66.53;99930.94;1680869;84;21071;-82
2022/09/29 10:23:34;;;;;;;7.15;5.12;;;;;;;14.50;66.37;99926.09;1701660;82;21137;-84
2022/09/29 10:26:16;;;;;;;23.47;6.95;;;;;;;14.52;66.37;99930.94;1707790;82;21122;-84
2022/09/29 10:29:02;;;;;;;36.13;9.53;;;;;;;14.55;66.49;99940.66;1707085;82;21157;-92
2022/09/29 10:31:32;;;;;;;18.77;7.30;;;;;;;14.58;66.42;99941.56;1705607;82;22660;-84
2022/09/29 10:34:22;;;;;;;9.90;6.33;;;;;;;14.57;66.21;99943.76;1705666;82;21071;-83
2022/09/29 10:37:02;;;;;;;6.20;5.40;;;;;;;14.57;66.06;99950.38;1706349;82;21102;-84
2022/09/29 10:39:47;;;;;;;5.28;4.70;;;;;;;14.53;65.86;99955.23;1718027;82;21086;-83
2022/09/29 10:42:26;;;;;;;5.95;4.65;;;;;;;14.47;65.69;99951.28;1711400;83;21931;-90
2022/09/29 10:45:15;;;;;;;6.58;5.50;;;;;;;14.44;65.61;99951.28;1678139;83;22524;-82
2022/09/29 10:47:45;;;;;;;6.60;5.42;;;;;;;14.41;65.48;99953.93;1704025;83;21701;-82
2022/09/29 10:50:21;;;;;;;11.00;6.62;;;;;;;14.38;65.45;99958.80;1703658;82;21029;-90
2022/09/29 10:53:01;;;;;;;7.87;6.60;;;;;;;14.42;65.56;99957.03;1687065;82;21143;-91
2022/09/29 10:55:34;;;;;;;7.28;6.55;;;;;;;14.44;65.55;99963.20;1704833;82;21074;-82
2022/09/29 10:58:24;;;;;;;6.78;6.08;;;;;;;14.47;65.43;99960.97;1710407;82;22536;-91
2022/09/29 11:01:08;;;;;;;5.90;4.80;;;;;;;14.43;65.14;99961.42;1712081;82;21051;-91
2022/09/29 11:03:42;;;;;;;5.62;4.80;;;;;;;14.39;65.08;99962.33;1707421;82;21594;-92
2022/09/29 11:06:11;;;;;;;6.03;5.28;;;;;;;14.39;65.37;99967.17;1726709;82;21059;-83
2022/09/29 11:09:05;;;;;;;9.78;6.37;;;;;;;14.49;65.37;99964.49;1727489;83;21060;-83
2022/09/29 11:11:40;;;;;;;6.12;5.53;;;;;;;14.62;65.41;99968.02;1682548;82;21752;-81
2022/09/29 11:14:23;;;;;;;6.40;5.55;;;;;;;14.72;64.99;99976.38;1704051;83;21731;-82
2022/09/29 11:16:59;;;;;;;6.75;6.05;;;;;;;14.82;65.13;99975.88;1717318;82;21074;-82
2022/09/29 11:19:26;;;;;;;6.42;5.37;;;;;;;14.90;64.93;99979.36;1695940;83;21869;-91
2022/09/29 11:22:01;;;;;;;7.83;5.45;;;;;;;14.90;64.58;99980.27;1719536;83;21153;-90
2022/09/29 11:24:57;;;;;;;7.47;6.10;;;;;;;14.82;64.37;99984.70;1705711;83;21593;-82
2022/09/29 11:28:06;;;;;;;8.98;5.55;;;;;;;14.80;64.35;99987.81;1705037;84;21059;-90
2022/09/29 11:31:11;;;;;;;5.40;4.90;;;;;;;14.78;64.46;99990.91;1696718;84;21587;-90
2022/09/29 11:34:13;;;;;;;5.92;5.05;;;;;;;14.81;64.37;99997.95;1676706;84;21128;-82
2022/09/29 11:37:06;;;;;;;5.50;4.92;;;;;;;14.81;64.19;100001.51;1691067;83;21080;-84
2022/09/29 11:40:11;;;;;;;8.25;4.37;;;;;;;14.81;64.17;100005.48;1715566;83;22518;-82
2022/09/29 11:43:13;;;;;;;4.85;4.35;;;;;;;14.90;64.34;100009.42;1725920;83;21048;-92
2022/09/29 11:45:48;;;;;;;4.97;4.47;;;;;;;15.05;64.10;100007.56;1692048;82;21577;-83
2022/09/29 11:48:35;;;;;;;4.15;3.72;;;;;;;15.08;63.75;100009.75;1688375;83;21507;-82
2022/09/29 11:51:41;;;;;;;4.87;4.22;;;;;;;15.05;63.53;100004.91;1693698;83;21074;-82
2022/09/29 11:54:56;;;;;;;5.75;5.15;;;;;;;15.01;63.50;100008.02;1694513;82;21776;-82
2022/09/29 11:57:57;;;;;;;5.00;4.50;;;;;;;15.01;63.41;100016.42;1717672;83;21091;-82
2022/09/29 12:00:38;;;;;;;5.33;4.83;;;;;;;14.87;63.08;100015.17;1699047;83;20980;-82
2022/09/29 12:03:29;;;;;;;7.25;4.92;;;;;;;14.74;62.94;100013.87;1702614;83;21083;-82
2022/09/29 12:06:15;;;;;;;7.30;5.67;;;;;;;14.72;63.20;100016.98;1728439;82;21052;-89
2022/09/29 12:08:59;;;;;;;7.37;6.25;;;;;;;14.73;63.21;100019.18;1728407;82;21821;-82
2022/09/29 12:12:11;;;;;;;6.37;5.50;;;;;;;14.70;63.32;100016.11;1729221;82;21525;-90
2022/09/29 12:15:04;;;;;;;6.70;6.00;;;;;;;14.73;63.45;100018.77;1728922;82;21035;-91
2022/09/29 12:17:35;;;;;;;6.33;5.45;;;;;;;14.74;63.46;100022.28;1729421;82;21580;-82
2022/09/29 12:20:08;;;;;;;6.72;5.10;;;;;;;14.81;63.35;100022.70;1729219;82;21056;-91
2022/09/29 12:22:35;;;;;;;7.28;5.28;;;;;;;14.95;63.61;100028.80;1728338;82;21835;-82
2022/09/29 12:25:01;;;;;;;6.05;5.28;;;;;;;15.10;63.37;100026.98;1708776;82;21568;-82
2022/09/29 12:27:35;;;;;;;5.83;5.20;;;;;;;15.23;63.45;100022.05;1729832;82;21044;-82
2022/09/29 12:30:16;;;;;;;5.92;5.33;;;;;;;15.45;63.25;100027.23;1729482;82;21071;-90
2022/09/29 12:33:07;;;;;;;6.47;5.00;;;;;;;15.65;63.12;100034.58;1729597;82;21048;-82
2022/09/29 12:35:54;;;;;;;5.28;4.78;;;;;;;15.93;63.01;100032.66;1671063;84;21794;-91
2022/09/29 12:38:37;;;;;;;5.75;4.60;;;;;;;16.19;62.65;100032.84;1694749;84;21051;-83